createdAt,value
2023-01-21T00:23:40.015Z,71.85
2023-01-21T00:26:11.676Z,71.78
2023-01-21T00:28:39.303Z,71.90
2023-01-21T00:31:09.289Z,70.23
2023-01-21T00:33:36.900Z,70.29
2023-01-21T00:36:06.802Z,71.88
2023-01-21T00:38:34.488Z,70.06
2023-01-21T00:41:06.527Z,71.18
2023-01-21T00:43:34.077Z,70.35
2023-01-21T00:46:01.324Z,69.64
2023-01-21T00:48:28.780Z,69.43
2023-01-21T00:50:59.161Z,71.04
2023-01-21T00:53:30.287Z,69.79
2023-01-21T00:56:01.904Z,70.98
2023-01-21T00:58:30.480Z,69.15
2023-01-21T01:01:12.274Z,68.85
2023-01-21T01:03:40.601Z,68.22
2023-01-21T01:06:16.121Z,68.48
2023-01-21T01:08:44.176Z,68.18
2023-01-21T01:11:12.130Z,67.72
2023-01-21T01:13:39.503Z,69.34
2023-01-21T01:16:07.269Z,68.50
2023-01-21T01:18:36.545Z,66.67
2023-01-21T01:21:05.773Z,67.26
2023-01-21T01:23:33.273Z,67.79
2023-01-21T01:26:03.053Z,68.49
2023-01-21T01:28:30.915Z,67.68
2023-01-21T01:30:58.249Z,66.51
2023-01-21T01:33:26.682Z,67.56
2023-01-21T01:35:53.909Z,67.59
2023-01-21T01:38:23.143Z,67.13
2023-01-21T01:40:52.697Z,66.54
2023-01-21T01:43:26.008Z,67.10
2023-01-21T01:45:54.064Z,66.28
2023-01-21T01:48:27.704Z,66.08
2023-01-21T01:50:59.313Z,67.01
2023-01-21T01:53:27.694Z,66.95
2023-01-21T01:55:55.550Z,65.32
2023-01-21T01:58:23.242Z,65.55
2023-01-21T02:00:50.566Z,64.89
2023-01-21T02:03:37.165Z,65.57
2023-01-21T02:06:05.041Z,66.72
2023-01-21T02:08:34.594Z,67.00
2023-01-21T02:11:02.807Z,64.70
2023-01-21T02:13:31.822Z,64.86
2023-01-21T02:16:22.647Z,64.70
2023-01-21T02:19:07.560Z,64.23
2023-01-21T02:22:13.104Z,64.76
2023-01-21T02:24:43.059Z,65.97
2023-01-21T02:27:38.711Z,64.92
2023-01-21T02:30:14.806Z,65.42
2023-01-21T02:33:00.590Z,64.55
2023-01-21T02:36:03.135Z,64.63
2023-01-21T02:39:06.025Z,64.59
2023-01-21T02:41:50.540Z,65.15
2023-01-21T02:44:27.906Z,63.89
2023-01-21T02:47:04.061Z,64.54
2023-01-21T02:49:44.668Z,65.83
2023-01-21T02:52:25.160Z,65.81
2023-01-21T02:55:00.682Z,64.75
2023-01-21T02:57:35.845Z,64.22
2023-01-21T03:00:09.992Z,64.59
2023-01-21T03:02:49.237Z,65.60
2023-01-21T03:05:40.671Z,64.30
2023-01-21T03:08:21.904Z,64.83
2023-01-21T03:11:13.331Z,64.88
2023-01-21T03:14:20.293Z,65.39
2023-01-21T03:16:58.987Z,64.86
2023-01-21T03:19:33.132Z,65.41
2023-01-21T03:22:04.643Z,64.99
2023-01-21T03:24:34.085Z,65.35
2023-01-21T03:27:02.101Z,64.35
2023-01-21T03:29:31.208Z,64.95
2023-01-21T03:32:04.676Z,64.82
2023-01-21T03:34:36.657Z,65.25
2023-01-21T03:37:09.695Z,64.57
2023-01-21T03:39:57.769Z,65.32
2023-01-21T03:42:25.021Z,65.35
2023-01-21T03:44:52.347Z,65.68
2023-01-21T03:47:31.908Z,65.40
2023-01-21T03:50:05.160Z,65.24
2023-01-21T03:52:34.707Z,65.92
2023-01-21T03:55:01.804Z,64.92
2023-01-21T03:57:30.284Z,65.44
2023-01-21T03:59:57.420Z,65.25
2023-01-21T04:02:24.585Z,65.12
2023-01-21T04:04:53.259Z,65.47
2023-01-21T04:07:20.277Z,65.87
2023-01-21T04:09:47.411Z,66.04
2023-01-21T04:12:14.293Z,66.51
2023-01-21T04:14:41.244Z,65.85
2023-01-21T04:17:08.531Z,65.91
2023-01-21T04:19:35.866Z,65.56
2023-01-21T04:22:02.977Z,65.21
2023-01-21T04:24:30.066Z,65.95
2023-01-21T04:26:57.099Z,66.43
2023-01-21T04:29:24.107Z,65.27
2023-01-21T04:31:51.241Z,66.78
2023-01-21T04:34:18.336Z,66.55
2023-01-21T04:36:45.567Z,65.66
2023-01-21T04:39:12.725Z,66.62
2023-01-21T04:41:39.892Z,67.12
2023-01-21T04:44:07.074Z,66.54
2023-01-21T04:46:34.094Z,66.52
2023-01-21T04:49:01.067Z,67.33
2023-01-21T04:51:29.386Z,66.65
2023-01-21T04:53:56.444Z,67.46
2023-01-21T04:56:23.420Z,67.34
2023-01-21T04:58:50.369Z,67.08
2023-01-21T05:01:17.397Z,68.21
2023-01-21T05:03:44.445Z,67.17
2023-01-21T05:06:11.513Z,67.68
2023-01-21T05:08:38.616Z,66.77
2023-01-21T05:11:08.714Z,67.20
2023-01-21T05:13:35.688Z,68.04
2023-01-21T05:16:08.669Z,68.52
2023-01-21T05:18:39.747Z,67.75
2023-01-21T05:21:07.148Z,68.58
2023-01-21T05:23:34.601Z,67.95
2023-01-21T05:26:01.829Z,67.75
2023-01-21T05:28:28.952Z,67.98
2023-01-21T05:31:00.420Z,68.58
2023-01-21T05:33:32.746Z,68.61
2023-01-21T05:36:00.771Z,68.02
2023-01-21T05:38:29.000Z,68.80
2023-01-21T05:41:03.935Z,68.83
2023-01-21T05:43:31.317Z,68.10
2023-01-21T05:45:58.291Z,67.30
2023-01-21T05:48:25.746Z,68.22
2023-01-21T05:50:52.914Z,67.53
2023-01-21T05:53:19.965Z,68.09
2023-01-21T05:55:47.035Z,68.02
2023-01-21T05:58:14.223Z,67.06
2023-01-21T06:00:42.098Z,67.93
2023-01-21T06:03:09.219Z,68.19
2023-01-21T06:05:36.337Z,68.02
2023-01-21T06:08:03.479Z,67.27
2023-01-21T06:10:30.612Z,67.65
2023-01-21T06:12:57.663Z,68.45
2023-01-21T06:15:25.914Z,68.03
2023-01-21T06:17:53.486Z,66.96
2023-01-21T06:20:21.097Z,67.93
2023-01-21T06:22:50.508Z,67.37
2023-01-21T06:25:17.679Z,66.94
2023-01-21T06:27:44.707Z,67.02
2023-01-21T06:30:11.945Z,67.25
2023-01-21T06:32:38.945Z,66.86
2023-01-21T06:35:06.261Z,67.82
2023-01-21T06:37:33.174Z,66.65
2023-01-21T06:40:00.286Z,67.77
2023-01-21T06:42:27.496Z,67.08
2023-01-21T06:44:57.079Z,66.25
2023-01-21T06:47:24.282Z,66.70
2023-01-21T06:49:51.294Z,66.53
2023-01-21T06:52:18.273Z,66.54
2023-01-21T06:54:45.397Z,66.48
2023-01-21T06:57:12.518Z,66.21
2023-01-21T06:59:39.834Z,65.98
2023-01-21T07:02:07.443Z,66.21
2023-01-21T07:04:34.521Z,66.32
2023-01-21T07:07:01.784Z,65.00
2023-01-21T07:09:29.183Z,65.31
2023-01-21T07:11:56.167Z,66.11
2023-01-21T07:14:23.172Z,65.73
2023-01-21T07:16:50.464Z,65.49
2023-01-21T07:19:17.719Z,65.34
2023-01-21T07:21:44.916Z,65.47
2023-01-21T07:24:11.884Z,65.39
2023-01-21T07:26:39.122Z,64.01
2023-01-21T07:29:06.670Z,64.37
2023-01-21T07:31:34.408Z,64.67
2023-01-21T07:34:02.033Z,64.32
2023-01-21T07:36:29.263Z,63.59
2023-01-21T07:38:58.500Z,63.93
2023-01-21T07:41:25.563Z,62.99
2023-01-21T07:43:52.868Z,63.45
2023-01-21T07:46:22.235Z,63.76
2023-01-21T07:48:53.398Z,62.63
2023-01-21T07:51:21.389Z,63.54
2023-01-21T07:53:48.773Z,62.91
2023-01-21T07:56:18.228Z,62.17
2023-01-21T07:58:47.201Z,63.01
2023-01-21T08:01:14.332Z,62.37
2023-01-21T08:03:41.911Z,61.50
2023-01-21T08:06:09.024Z,61.75
2023-01-21T08:08:36.330Z,62.61
2023-01-21T08:11:03.441Z,61.79
2023-01-21T08:13:30.845Z,62.23
2023-01-21T08:16:01.749Z,62.03
2023-01-21T08:18:28.810Z,60.64
2023-01-21T08:20:57.434Z,61.01
2023-01-21T08:23:25.597Z,61.97
2023-01-21T08:25:53.718Z,60.62
2023-01-21T08:28:21.939Z,60.62
2023-01-21T08:30:49.070Z,61.25
2023-01-21T08:33:16.284Z,60.74
2023-01-21T08:35:43.320Z,60.90
2023-01-21T08:38:10.435Z,59.24
2023-01-21T08:40:37.712Z,61.01
2023-01-21T08:43:07.314Z,60.85
2023-01-21T08:45:34.562Z,60.04
2023-01-21T08:48:03.889Z,60.33
2023-01-21T08:50:38.357Z,60.61
2023-01-21T08:53:05.317Z,60.53
2023-01-21T09:01:50.558Z,60.16
2023-01-21T09:04:17.618Z,59.63
2023-01-21T09:09:54.037Z,59.19
2023-01-21T09:12:22.811Z,59.21
2023-01-21T09:14:50.565Z,60.28
2023-01-21T09:17:17.665Z,59.81
2023-01-21T09:19:45.004Z,59.02
2023-01-21T09:22:12.067Z,59.15
2023-01-21T09:24:39.128Z,59.31
2023-01-21T09:27:07.348Z,58.64
2023-01-21T09:29:34.766Z,58.33
2023-01-21T09:32:02.460Z,59.50
2023-01-21T09:34:29.770Z,59.48
2023-01-21T09:36:59.832Z,58.12
2023-01-21T09:39:30.446Z,58.43
2023-01-21T09:45:29.819Z,57.87
2023-01-21T09:48:11.227Z,57.42
2023-01-21T09:53:45.305Z,57.67
2023-01-21T09:56:36.406Z,58.51
2023-01-21T09:59:17.527Z,57.58
2023-01-21T10:01:46.591Z,58.29
2023-01-21T10:04:34.433Z,57.59
2023-01-21T10:07:14.747Z,58.42
2023-01-21T10:09:57.862Z,58.51
2023-01-21T10:12:44.995Z,58.06
2023-01-21T10:15:27.381Z,58.37
2023-01-21T10:18:12.601Z,57.31
2023-01-21T10:20:54.348Z,58.01
2023-01-21T10:23:45.965Z,58.07
2023-01-21T10:26:14.986Z,58.32
2023-01-21T10:28:47.260Z,57.64
2023-01-21T10:31:32.797Z,57.35
2023-01-21T10:33:59.966Z,57.01
2023-01-21T10:36:26.935Z,57.02
2023-01-21T10:39:28.214Z,56.83
2023-01-21T10:42:10.404Z,57.44
2023-01-21T10:44:53.513Z,57.17
2023-01-21T10:47:42.245Z,56.69
2023-01-21T10:50:38.332Z,56.87
2023-01-21T10:53:48.509Z,56.38
2023-01-21T10:56:37.227Z,56.39
2023-01-21T10:59:09.587Z,56.62
2023-01-21T11:01:40.962Z,56.54
2023-01-21T11:04:28.209Z,57.03
2023-01-21T11:07:02.077Z,56.24
2023-01-21T11:09:36.342Z,56.55
2023-01-21T11:12:03.626Z,55.95
2023-01-21T11:14:30.634Z,55.37
2023-01-21T11:16:57.847Z,56.79
2023-01-21T11:19:28.001Z,56.27
2023-01-21T11:22:04.254Z,55.88
2023-01-21T11:24:49.340Z,56.47
2023-01-21T11:27:28.375Z,57.10
2023-01-21T11:29:55.388Z,56.38
2023-01-21T11:32:27.678Z,56.46
2023-01-21T11:34:57.703Z,56.66
2023-01-21T11:37:27.825Z,56.47
2023-01-21T11:40:21.159Z,57.47
2023-01-21T11:42:54.136Z,56.64
2023-01-21T11:45:31.898Z,56.61
2023-01-21T11:48:00.215Z,56.95
2023-01-21T11:50:30.725Z,56.12
2023-01-21T11:53:07.091Z,56.49
2023-01-21T11:55:53.430Z,56.14
2023-01-21T11:58:35.903Z,56.23
2023-01-21T12:01:06.758Z,56.60
2023-01-21T12:03:41.255Z,56.83
2023-01-21T12:06:10.095Z,56.95
2023-01-21T12:08:38.800Z,56.73
2023-01-21T12:11:08.289Z,56.79
2023-01-21T12:13:58.326Z,56.70
2023-01-21T12:16:33.730Z,56.68
2023-01-21T12:19:38.255Z,57.43
2023-01-21T12:22:31.332Z,57.01
2023-01-21T12:25:41.164Z,55.98
2023-01-21T12:35:24.565Z,56.65
2023-01-21T12:38:00.926Z,57.40
2023-01-21T12:40:33.694Z,57.45
2023-01-21T12:43:09.083Z,57.25
2023-01-21T12:45:46.302Z,57.54
2023-01-21T12:48:30.452Z,57.28
2023-01-21T12:51:09.571Z,57.20
2023-01-21T12:53:47.324Z,56.87
2023-01-21T12:56:55.613Z,57.28
2023-01-21T12:59:38.079Z,57.02
2023-01-21T13:02:34.507Z,56.23
2023-01-21T13:05:28.926Z,57.10
2023-01-21T13:08:25.912Z,56.48
2023-01-21T13:11:17.960Z,55.27
2023-01-21T13:14:08.199Z,55.68
2023-01-21T13:16:40.330Z,56.53
2023-01-21T13:19:11.428Z,56.79
2023-01-21T13:21:56.461Z,55.82
2023-01-21T13:24:29.182Z,56.01
2023-01-21T13:27:22.745Z,55.73
2023-01-21T13:30:17.545Z,56.59
2023-01-21T13:33:01.043Z,56.39
2023-01-21T13:35:34.182Z,56.29
2023-01-21T13:38:33.358Z,57.17
2023-01-21T13:41:13.304Z,55.72
2023-01-21T13:44:00.688Z,55.57
2023-01-21T13:47:12.493Z,56.24
2023-01-21T13:50:04.582Z,57.24
2023-01-21T13:52:50.301Z,57.02
2023-01-21T13:55:31.223Z,57.18
2023-01-21T13:58:02.822Z,57.39
2023-01-21T14:00:41.041Z,57.26
2023-01-21T14:03:46.488Z,59.35
2023-01-21T14:06:16.521Z,57.74
2023-01-21T14:09:08.292Z,57.60
2023-01-21T14:11:45.308Z,58.82
2023-01-21T14:14:35.210Z,58.37
2023-01-21T14:17:14.107Z,58.32
2023-01-21T14:20:05.899Z,59.76
2023-01-21T14:22:50.452Z,58.21
2023-01-21T14:25:38.971Z,59.74
2023-01-21T14:28:48.235Z,58.62
2023-01-21T14:31:38.705Z,59.13
2023-01-21T14:34:18.173Z,59.64
2023-01-21T14:37:37.846Z,58.94
2023-01-21T14:40:34.758Z,60.15
2023-01-21T14:43:01.969Z,59.24
2023-01-21T14:45:50.896Z,59.28
2023-01-21T14:48:58.609Z,59.60
2023-01-21T14:51:29.307Z,60.40
2023-01-21T14:54:28.180Z,58.99
2023-01-21T14:57:13.750Z,59.22
2023-01-21T14:59:47.053Z,60.81
2023-01-21T15:02:42.517Z,60.70
2023-01-21T15:05:39.561Z,59.99
2023-01-21T15:14:58.245Z,61.03
2023-01-21T15:25:30.515Z,61.15
2023-01-21T15:28:48.172Z,62.00
2023-01-21T15:31:21.052Z,62.36
2023-01-21T15:34:02.330Z,63.66
2023-01-21T15:41:57.130Z,63.27
2023-01-21T15:44:39.582Z,63.84
2023-01-21T15:50:30.833Z,64.66
2023-01-21T15:53:21.153Z,63.81
2023-01-21T15:56:32.857Z,63.88
2023-01-21T15:59:09.115Z,64.24
2023-01-21T16:01:39.628Z,64.84
2023-01-21T16:04:44.252Z,65.84
2023-01-21T16:07:38.913Z,65.35
2023-01-21T16:10:23.120Z,66.11
2023-01-21T16:13:09.615Z,65.12
2023-01-21T16:16:10.433Z,65.93
2023-01-21T16:18:59.706Z,65.32
2023-01-21T16:21:36.051Z,65.81
2023-01-21T16:27:32.533Z,66.00
2023-01-21T16:30:10.952Z,65.82
2023-01-21T16:32:38.163Z,66.99
2023-01-21T16:35:05.938Z,66.71
2023-01-21T16:37:33.398Z,66.61
2023-01-21T16:40:20.814Z,67.04
2023-01-21T16:42:48.241Z,67.52
2023-01-21T16:45:21.434Z,67.13
2023-01-21T16:47:57.390Z,66.61
2023-01-21T16:50:28.052Z,67.33
2023-01-21T16:52:57.340Z,67.21
2023-01-21T16:55:30.873Z,67.41
2023-01-21T16:57:59.570Z,67.73
2023-01-21T17:00:31.961Z,67.62
2023-01-21T17:03:00.538Z,67.61
2023-01-21T17:05:34.762Z,67.12
2023-01-21T17:08:09.840Z,67.92
2023-01-21T17:10:40.419Z,67.20
2023-01-21T17:13:16.095Z,67.64
2023-01-21T17:15:49.499Z,67.92
2023-01-21T17:18:51.807Z,67.83
2023-01-21T17:21:51.269Z,67.71
2023-01-21T17:24:44.068Z,67.83
2023-01-21T17:27:16.656Z,68.27
2023-01-21T17:29:45.376Z,67.52
2023-01-21T17:32:26.481Z,67.77
2023-01-21T17:35:14.190Z,67.79
2023-01-21T17:37:52.217Z,67.68
2023-01-21T17:40:27.159Z,67.54
2023-01-21T17:42:55.431Z,67.50
2023-01-21T17:45:35.604Z,68.42
2023-01-21T17:48:14.037Z,67.59
2023-01-21T17:50:46.571Z,67.18
2023-01-21T17:53:22.959Z,67.35
2023-01-21T17:56:03.517Z,67.01
2023-01-21T17:58:52.464Z,66.83
2023-01-21T18:01:21.394Z,67.08
2023-01-21T18:03:48.884Z,67.15
2023-01-21T18:06:25.072Z,66.80
2023-01-21T18:08:56.245Z,67.38
2023-01-21T18:11:23.927Z,67.05
2023-01-21T18:13:52.800Z,66.71
2023-01-21T18:16:20.153Z,66.88
2023-01-21T18:18:47.387Z,66.54
2023-01-21T18:21:20.293Z,66.41
2023-01-21T18:23:48.799Z,66.60
2023-01-21T18:26:38.441Z,66.32
2023-01-21T18:29:05.638Z,66.99
2023-01-21T18:31:32.856Z,66.44
2023-01-21T18:34:00.556Z,66.72
2023-01-21T18:36:27.899Z,66.53
2023-01-21T18:38:55.072Z,66.31
2023-01-21T18:41:22.262Z,66.48
2023-01-21T18:43:49.356Z,66.91
2023-01-21T18:46:16.608Z,66.60
2023-01-21T18:48:43.973Z,66.94
2023-01-21T18:51:13.222Z,66.37
2023-01-21T18:53:40.819Z,66.77
2023-01-21T18:56:12.668Z,66.70
2023-01-21T18:58:39.739Z,66.86
2023-01-21T19:01:21.376Z,66.41
2023-01-21T19:03:52.530Z,67.46
2023-01-21T19:06:19.755Z,67.02
2023-01-21T19:08:48.842Z,66.39
2023-01-21T19:11:16.633Z,67.07
2023-01-21T19:13:44.282Z,67.53
2023-01-21T19:16:18.829Z,67.34
2023-01-21T19:18:46.321Z,67.38
2023-01-21T19:21:13.564Z,67.05
2023-01-21T19:23:40.645Z,67.62
2023-01-21T19:26:08.751Z,67.59
2023-01-21T19:28:36.080Z,67.27
2023-01-21T19:31:03.281Z,67.15
2023-01-21T19:33:31.017Z,67.27
2023-01-21T19:36:13.114Z,67.33
2023-01-21T19:38:42.092Z,67.68
2023-01-21T19:41:10.424Z,67.86
2023-01-21T19:43:37.598Z,67.25
2023-01-21T19:46:10.950Z,68.04
2023-01-21T19:48:38.363Z,68.05
2023-01-21T19:51:06.220Z,68.19
2023-01-21T19:53:33.497Z,68.04
2023-01-21T19:56:01.240Z,68.22
2023-01-21T19:58:30.921Z,67.96
2023-01-21T20:00:58.046Z,68.36
2023-01-21T20:03:28.436Z,68.17
2023-01-21T20:06:04.032Z,68.16
2023-01-21T20:08:33.180Z,68.44
2023-01-21T20:11:00.312Z,68.47
2023-01-21T20:13:31.429Z,68.28
2023-01-21T20:16:04.872Z,69.08
2023-01-21T20:18:34.868Z,68.71
2023-01-21T20:21:01.900Z,68.20
2023-01-21T20:23:31.176Z,68.86
2023-01-21T20:25:59.618Z,68.81
2023-01-21T20:28:34.539Z,69.15
2023-01-21T20:31:06.638Z,69.04
2023-01-21T20:33:35.721Z,69.15
2023-01-21T20:36:07.815Z,69.40
2023-01-21T20:38:37.765Z,69.84
2023-01-21T20:41:06.195Z,69.49
2023-01-21T20:43:33.705Z,70.21
2023-01-21T20:46:03.039Z,69.74
2023-01-21T20:48:35.141Z,70.21
2023-01-21T20:51:03.211Z,70.06
2023-01-21T20:53:31.270Z,70.26
2023-01-21T20:56:01.190Z,70.14
2023-01-21T20:58:28.483Z,69.95
2023-01-21T21:00:55.784Z,70.46
2023-01-21T21:03:22.919Z,70.91
2023-01-21T21:05:50.303Z,70.57
2023-01-21T21:08:20.218Z,70.96
2023-01-21T21:10:47.960Z,71.71
2023-01-21T21:13:15.032Z,71.99
2023-01-21T21:15:46.211Z,71.16
2023-01-21T21:18:14.747Z,71.10
2023-01-21T21:20:42.800Z,71.08
2023-01-21T21:23:14.583Z,71.17
2023-01-21T21:25:44.593Z,71.06
2023-01-21T21:28:17.403Z,71.37
2023-01-21T21:30:45.075Z,71.26
2023-01-21T21:33:19.006Z,70.73
2023-01-21T21:35:47.074Z,71.14
2023-01-21T21:38:21.991Z,71.14
2023-01-21T21:40:53.228Z,71.42
2023-01-21T21:43:35.744Z,71.32
2023-01-21T21:46:26.217Z,71.92
2023-01-21T21:48:53.533Z,71.92
2023-01-21T21:51:22.587Z,71.93
2023-01-21T21:53:50.391Z,71.81
2023-01-21T21:56:20.814Z,72.25
2023-01-21T21:58:48.336Z,72.27
2023-01-21T22:01:29.466Z,72.63
2023-01-21T22:04:00.701Z,71.55
2023-01-21T22:06:28.113Z,72.15
2023-01-21T22:08:57.365Z,72.01
2023-01-21T22:11:25.001Z,72.10
2023-01-21T22:13:53.603Z,72.45
2023-01-21T22:16:28.876Z,72.34
2023-01-21T22:19:00.328Z,72.32
2023-01-21T22:21:33.082Z,72.47
2023-01-21T22:24:06.872Z,72.18
2023-01-21T22:26:35.915Z,72.17
2023-01-21T22:29:04.514Z,72.42
2023-01-21T22:31:33.124Z,72.04
2023-01-21T22:34:00.743Z,72.47
2023-01-21T22:36:30.848Z,72.57
2023-01-21T22:38:58.372Z,72.89
2023-01-21T22:41:25.762Z,73.37
2023-01-21T22:43:53.474Z,73.12
2023-01-21T22:46:23.326Z,72.86
2023-01-21T22:48:50.721Z,72.83
2023-01-21T22:51:19.706Z,72.82
2023-01-21T22:53:47.883Z,73.77
2023-01-21T22:56:16.742Z,73.39
2023-01-21T22:58:43.954Z,73.02
2023-01-21T23:01:31.598Z,72.89
2023-01-21T23:04:00.012Z,73.65
2023-01-21T23:06:27.265Z,74.04
2023-01-21T23:08:54.862Z,73.53
2023-01-21T23:11:21.986Z,73.60
2023-01-21T23:13:49.917Z,73.50
2023-01-21T23:16:19.227Z,73.46
2023-01-21T23:18:46.718Z,73.70
2023-01-21T23:21:17.054Z,73.78
2023-01-21T23:23:44.415Z,73.89
2023-01-21T23:26:12.123Z,73.64
2023-01-21T23:28:39.135Z,73.92
2023-01-21T23:31:08.767Z,74.21
2023-01-21T23:33:36.091Z,74.36
2023-01-21T23:36:03.567Z,74.52
2023-01-21T23:38:30.947Z,74.69
2023-01-21T23:40:58.392Z,74.64
2023-01-21T23:43:26.994Z,74.55
2023-01-21T23:45:55.280Z,74.20
2023-01-21T23:48:22.882Z,75.04
2023-01-21T23:50:49.892Z,74.64
2023-01-21T23:53:17.417Z,75.06
2023-01-21T23:55:44.748Z,75.06
2023-01-21T23:58:11.857Z,74.98
